sensor_id;sensor_type;location;lat;lon;timestamp;P1;durP1;ratioP1;P2;durP2;ratioP2
35667;SDS011;22158;59.280;17.806;2022-07-23T00:00:16;18.58;;;6.70;;
35667;SDS011;22158;59.280;17.806;2022-07-23T00:02:43;18.25;;;6.15;;
35667;SDS011;22158;59.280;17.806;2022-07-23T00:05:09;21.40;;;6.65;;
35667;SDS011;22158;59.280;17.806;2022-07-23T00:07:35;21.70;;;6.55;;
35667;SDS011;22158;59.280;17.806;2022-07-23T00:10:02;21.70;;;6.25;;
35667;SDS011;22158;59.280;17.806;2022-07-23T00:12:28;18.15;;;6.40;;
35667;SDS011;22158;59.280;17.806;2022-07-23T00:14:54;24.17;;;7.20;;
35667;SDS011;22158;59.280;17.806;2022-07-23T00:17:20;25.90;;;8.07;;
35667;SDS011;22158;59.280;17.806;2022-07-23T00:19:45;16.35;;;7.15;;
35667;SDS011;22158;59.280;17.806;2022-07-23T00:22:11;24.30;;;6.40;;
35667;SDS011;22158;59.280;17.806;2022-07-23T00:24:37;21.65;;;7.20;;
35667;SDS011;22158;59.280;17.806;2022-07-23T00:27:03;23.38;;;7.07;;
35667;SDS011;22158;59.280;17.806;2022-07-23T00:29:28;30.02;;;8.05;;
35667;SDS011;22158;59.280;17.806;2022-07-23T00:31:54;29.13;;;8.20;;
35667;SDS011;22158;59.280;17.806;2022-07-23T00:34:20;29.95;;;7.68;;
35667;SDS011;22158;59.280;17.806;2022-07-23T00:36:45;31.02;;;8.15;;
35667;SDS011;22158;59.280;17.806;2022-07-23T00:39:11;36.83;;;8.73;;
35667;SDS011;22158;59.280;17.806;2022-07-23T00:41:37;34.33;;;8.50;;
35667;SDS011;22158;59.280;17.806;2022-07-23T00:46:55;48.83;;;12.95;;
35667;SDS011;22158;59.280;17.806;2022-07-23T00:49:23;44.70;;;11.50;;
35667;SDS011;22158;59.280;17.806;2022-07-23T00:51:51;37.60;;;10.65;;
35667;SDS011;22158;59.280;17.806;2022-07-23T00:54:17;40.83;;;10.98;;
35667;SDS011;22158;59.280;17.806;2022-07-23T00:56:44;30.88;;;8.98;;
35667;SDS011;22158;59.280;17.806;2022-07-23T00:59:11;26.00;;;9.85;;
35667;SDS011;22158;59.280;17.806;2022-07-23T01:01:37;33.25;;;10.98;;
35667;SDS011;22158;59.280;17.806;2022-07-23T01:04:03;33.28;;;9.80;;
35667;SDS011;22158;59.280;17.806;2022-07-23T01:06:29;51.35;;;10.35;;
35667;SDS011;22158;59.280;17.806;2022-07-23T01:08:59;29.13;;;9.32;;
35667;SDS011;22158;59.280;17.806;2022-07-23T01:11:24;34.25;;;10.13;;
35667;SDS011;22158;59.280;17.806;2022-07-23T01:13:50;33.53;;;8.95;;
35667;SDS011;22158;59.280;17.806;2022-07-23T01:16:16;35.03;;;10.52;;
35667;SDS011;22158;59.280;17.806;2022-07-23T01:18:41;34.60;;;9.82;;
35667;SDS011;22158;59.280;17.806;2022-07-23T01:21:08;37.72;;;9.93;;
35667;SDS011;22158;59.280;17.806;2022-07-23T01:23:38;36.92;;;11.88;;
35667;SDS011;22158;59.280;17.806;2022-07-23T01:26:04;30.25;;;9.40;;
35667;SDS011;22158;59.280;17.806;2022-07-23T01:28:30;27.98;;;9.48;;
35667;SDS011;22158;59.280;17.806;2022-07-23T01:30:55;27.45;;;9.20;;
35667;SDS011;22158;59.280;17.806;2022-07-23T01:33:21;33.08;;;9.45;;
35667;SDS011;22158;59.280;17.806;2022-07-23T01:35:47;43.65;;;11.43;;
35667;SDS011;22158;59.280;17.806;2022-07-23T01:38:12;25.95;;;9.05;;
35667;SDS011;22158;59.280;17.806;2022-07-23T01:40:38;36.28;;;9.25;;
35667;SDS011;22158;59.280;17.806;2022-07-23T01:43:04;27.75;;;9.27;;
35667;SDS011;22158;59.280;17.806;2022-07-23T01:45:30;31.65;;;8.43;;
35667;SDS011;22158;59.280;17.806;2022-07-23T01:47:55;29.90;;;9.55;;
35667;SDS011;22158;59.280;17.806;2022-07-23T01:50:21;29.20;;;9.32;;
35667;SDS011;22158;59.280;17.806;2022-07-23T01:52:47;25.13;;;8.05;;
35667;SDS011;22158;59.280;17.806;2022-07-23T01:55:12;31.60;;;8.55;;
35667;SDS011;22158;59.280;17.806;2022-07-23T01:57:38;29.17;;;8.35;;
35667;SDS011;22158;59.280;17.806;2022-07-23T02:00:04;32.55;;;9.98;;
35667;SDS011;22158;59.280;17.806;2022-07-23T02:02:30;21.45;;;8.13;;
35667;SDS011;22158;59.280;17.806;2022-07-23T02:04:56;23.77;;;7.35;;
35667;SDS011;22158;59.280;17.806;2022-07-23T02:07:21;26.58;;;8.55;;
35667;SDS011;22158;59.280;17.806;2022-07-23T02:09:47;20.63;;;6.65;;
35667;SDS011;22158;59.280;17.806;2022-07-23T02:12:13;26.90;;;7.75;;
35667;SDS011;22158;59.280;17.806;2022-07-23T02:14:38;20.95;;;7.22;;
35667;SDS011;22158;59.280;17.806;2022-07-23T02:17:04;29.27;;;8.48;;
35667;SDS011;22158;59.280;17.806;2022-07-23T02:19:30;23.98;;;6.60;;
35667;SDS011;22158;59.280;17.806;2022-07-23T02:21:55;20.42;;;6.65;;
35667;SDS011;22158;59.280;17.806;2022-07-23T02:24:21;14.38;;;5.78;;
35667;SDS011;22158;59.280;17.806;2022-07-23T02:26:47;25.98;;;6.70;;
35667;SDS011;22158;59.280;17.806;2022-07-23T02:29:13;15.90;;;6.10;;
35667;SDS011;22158;59.280;17.806;2022-07-23T02:31:38;11.98;;;4.75;;
35667;SDS011;22158;59.280;17.806;2022-07-23T02:34:04;11.77;;;4.32;;
35667;SDS011;22158;59.280;17.806;2022-07-23T02:36:30;10.32;;;5.00;;
35667;SDS011;22158;59.280;17.806;2022-07-23T02:38:56;7.25;;;3.30;;
35667;SDS011;22158;59.280;17.806;2022-07-23T02:41:22;8.50;;;3.75;;
35667;SDS011;22158;59.280;17.806;2022-07-23T02:43:48;8.20;;;3.03;;
35667;SDS011;22158;59.280;17.806;2022-07-23T02:46:14;7.18;;;3.30;;
35667;SDS011;22158;59.280;17.806;2022-07-23T02:48:39;7.88;;;4.15;;
35667;SDS011;22158;59.280;17.806;2022-07-23T02:51:05;8.80;;;3.55;;
35667;SDS011;22158;59.280;17.806;2022-07-23T02:53:31;6.85;;;3.72;;
35667;SDS011;22158;59.280;17.806;2022-07-23T02:55:56;6.40;;;3.80;;
35667;SDS011;22158;59.280;17.806;2022-07-23T02:58:22;5.35;;;2.30;;
35667;SDS011;22158;59.280;17.806;2022-07-23T03:00:48;7.80;;;3.00;;
35667;SDS011;22158;59.280;17.806;2022-07-23T03:03:13;6.65;;;2.40;;
35667;SDS011;22158;59.280;17.806;2022-07-23T03:05:39;4.90;;;1.80;;
35667;SDS011;22158;59.280;17.806;2022-07-23T03:08:05;5.55;;;2.08;;
35667;SDS011;22158;59.280;17.806;2022-07-23T03:10:30;4.35;;;1.80;;
35667;SDS011;22158;59.280;17.806;2022-07-23T03:12:56;4.20;;;2.20;;
35667;SDS011;22158;59.280;17.806;2022-07-23T03:15:22;6.28;;;2.15;;
35667;SDS011;22158;59.280;17.806;2022-07-23T03:17:47;6.03;;;1.85;;
35667;SDS011;22158;59.280;17.806;2022-07-23T03:20:13;4.28;;;1.52;;
35667;SDS011;22158;59.280;17.806;2022-07-23T03:22:38;8.35;;;2.38;;
35667;SDS011;22158;59.280;17.806;2022-07-23T03:25:04;5.25;;;2.08;;
35667;SDS011;22158;59.280;17.806;2022-07-23T03:27:30;4.15;;;1.75;;
35667;SDS011;22158;59.280;17.806;2022-07-23T03:29:57;3.90;;;1.90;;
35667;SDS011;22158;59.280;17.806;2022-07-23T03:32:24;4.10;;;1.67;;
35667;SDS011;22158;59.280;17.806;2022-07-23T03:34:50;5.57;;;2.05;;
35667;SDS011;22158;59.280;17.806;2022-07-23T03:37:17;3.65;;;1.80;;
35667;SDS011;22158;59.280;17.806;2022-07-23T03:39:43;3.53;;;1.60;;
35667;SDS011;22158;59.280;17.806;2022-07-23T03:42:09;3.88;;;1.48;;
35667;SDS011;22158;59.280;17.806;2022-07-23T03:44:35;2.17;;;1.15;;
35667;SDS011;22158;59.280;17.806;2022-07-23T03:47:02;3.25;;;1.60;;
35667;SDS011;22158;59.280;17.806;2022-07-23T03:49:29;3.50;;;2.42;;
35667;SDS011;22158;59.280;17.806;2022-07-23T03:51:54;3.22;;;1.50;;
35667;SDS011;22158;59.280;17.806;2022-07-23T03:54:20;3.13;;;1.33;;
35667;SDS011;22158;59.280;17.806;2022-07-23T03:56:46;2.83;;;1.35;;
35667;SDS011;22158;59.280;17.806;2022-07-23T03:59:11;3.50;;;1.52;;
35667;SDS011;22158;59.280;17.806;2022-07-23T04:01:37;2.50;;;1.50;;
35667;SDS011;22158;59.280;17.806;2022-07-23T04:04:03;3.78;;;1.67;;
35667;SDS011;22158;59.280;17.806;2022-07-23T04:06:28;3.58;;;1.63;;
35667;SDS011;22158;59.280;17.806;2022-07-23T04:08:54;3.20;;;1.52;;
35667;SDS011;22158;59.280;17.806;2022-07-23T04:11:20;3.53;;;1.55;;
35667;SDS011;22158;59.280;17.806;2022-07-23T04:13:46;4.25;;;1.60;;
35667;SDS011;22158;59.280;17.806;2022-07-23T04:16:12;3.60;;;1.83;;
35667;SDS011;22158;59.280;17.806;2022-07-23T04:18:38;3.95;;;1.58;;
35667;SDS011;22158;59.280;17.806;2022-07-23T04:21:03;3.95;;;1.50;;
35667;SDS011;22158;59.280;17.806;2022-07-23T04:23:29;3.03;;;1.70;;
35667;SDS011;22158;59.280;17.806;2022-07-23T04:25:55;3.63;;;1.55;;
35667;SDS011;22158;59.280;17.806;2022-07-23T04:28:20;4.47;;;1.25;;
35667;SDS011;22158;59.280;17.806;2022-07-23T04:30:46;2.65;;;1.60;;
35667;SDS011;22158;59.280;17.806;2022-07-23T04:33:12;2.97;;;1.63;;
35667;SDS011;22158;59.280;17.806;2022-07-23T04:35:37;4.85;;;1.80;;
35667;SDS011;22158;59.280;17.806;2022-07-23T04:38:03;3.63;;;2.45;;
35667;SDS011;22158;59.280;17.806;2022-07-23T04:40:29;4.78;;;1.95;;
35667;SDS011;22158;59.280;17.806;2022-07-23T04:42:55;2.83;;;1.70;;
35667;SDS011;22158;59.280;17.806;2022-07-23T04:45:21;3.05;;;1.83;;
35667;SDS011;22158;59.280;17.806;2022-07-23T04:47:48;2.78;;;1.50;;
35667;SDS011;22158;59.280;17.806;2022-07-23T04:50:14;1.38;;;1.05;;
35667;SDS011;22158;59.280;17.806;2022-07-23T04:52:44;2.45;;;1.75;;
35667;SDS011;22158;59.280;17.806;2022-07-23T04:55:10;6.28;;;1.83;;
35667;SDS011;22158;59.280;17.806;2022-07-23T04:57:35;3.30;;;1.55;;
35667;SDS011;22158;59.280;17.806;2022-07-23T05:00:02;2.72;;;1.58;;
35667;SDS011;22158;59.280;17.806;2022-07-23T05:02:28;2.58;;;1.48;;
35667;SDS011;22158;59.280;17.806;2022-07-23T05:04:54;3.80;;;1.67;;
35667;SDS011;22158;59.280;17.806;2022-07-23T05:07:20;3.28;;;1.75;;
35667;SDS011;22158;59.280;17.806;2022-07-23T05:09:46;3.85;;;1.40;;
35667;SDS011;22158;59.280;17.806;2022-07-23T05:12:11;3.17;;;1.60;;
35667;SDS011;22158;59.280;17.806;2022-07-23T05:14:37;2.92;;;1.70;;
35667;SDS011;22158;59.280;17.806;2022-07-23T05:17:03;4.35;;;1.92;;
35667;SDS011;22158;59.280;17.806;2022-07-23T05:19:28;4.70;;;1.55;;
35667;SDS011;22158;59.280;17.806;2022-07-23T05:21:54;4.10;;;1.80;;
35667;SDS011;22158;59.280;17.806;2022-07-23T05:24:20;3.45;;;1.55;;
35667;SDS011;22158;59.280;17.806;2022-07-23T05:26:45;3.63;;;1.60;;
35667;SDS011;22158;59.280;17.806;2022-07-23T05:29:11;4.43;;;1.80;;
35667;SDS011;22158;59.280;17.806;2022-07-23T05:31:37;4.03;;;1.73;;
35667;SDS011;22158;59.280;17.806;2022-07-23T05:34:02;5.28;;;1.70;;
35667;SDS011;22158;59.280;17.806;2022-07-23T05:36:29;4.40;;;2.30;;
35667;SDS011;22158;59.280;17.806;2022-07-23T05:38:56;3.70;;;2.63;;
35667;SDS011;22158;59.280;17.806;2022-07-23T05:41:22;5.55;;;1.90;;
35667;SDS011;22158;59.280;17.806;2022-07-23T05:43:48;4.97;;;1.80;;
35667;SDS011;22158;59.280;17.806;2022-07-23T05:46:13;8.52;;;2.38;;
35667;SDS011;22158;59.280;17.806;2022-07-23T05:48:39;5.03;;;1.67;;
35667;SDS011;22158;59.280;17.806;2022-07-23T05:51:05;4.30;;;1.70;;
35667;SDS011;22158;59.280;17.806;2022-07-23T05:53:32;7.13;;;2.50;;
35667;SDS011;22158;59.280;17.806;2022-07-23T05:55:58;4.65;;;1.67;;
35667;SDS011;22158;59.280;17.806;2022-07-23T05:58:23;2.80;;;2.47;;
35667;SDS011;22158;59.280;17.806;2022-07-23T06:00:49;5.13;;;1.63;;
35667;SDS011;22158;59.280;17.806;2022-07-23T06:03:15;2.67;;;1.60;;
35667;SDS011;22158;59.280;17.806;2022-07-23T06:05:40;3.83;;;1.83;;
35667;SDS011;22158;59.280;17.806;2022-07-23T06:08:06;4.78;;;1.90;;
35667;SDS011;22158;59.280;17.806;2022-07-23T06:10:32;4.70;;;1.75;;
35667;SDS011;22158;59.280;17.806;2022-07-23T06:12:57;3.85;;;1.92;;
35667;SDS011;22158;59.280;17.806;2022-07-23T06:15:23;2.03;;;1.33;;
35667;SDS011;22158;59.280;17.806;2022-07-23T06:17:49;3.83;;;2.08;;
35667;SDS011;22158;59.280;17.806;2022-07-23T06:20:14;4.22;;;1.58;;
35667;SDS011;22158;59.280;17.806;2022-07-23T06:22:40;3.15;;;1.88;;
35667;SDS011;22158;59.280;17.806;2022-07-23T06:25:06;1.45;;;1.20;;
35667;SDS011;22158;59.280;17.806;2022-07-23T06:27:32;2.03;;;1.55;;
35667;SDS011;22158;59.280;17.806;2022-07-23T06:29:58;2.17;;;1.38;;
35667;SDS011;22158;59.280;17.806;2022-07-23T06:32:23;2.35;;;1.20;;
35667;SDS011;22158;59.280;17.806;2022-07-23T06:34:49;2.45;;;1.10;;
35667;SDS011;22158;59.280;17.806;2022-07-23T06:37:15;1.63;;;1.20;;
35667;SDS011;22158;59.280;17.806;2022-07-23T06:39:41;1.52;;;1.02;;
35667;SDS011;22158;59.280;17.806;2022-07-23T06:42:07;3.65;;;1.13;;
35667;SDS011;22158;59.280;17.806;2022-07-23T06:44:33;1.63;;;1.20;;
35667;SDS011;22158;59.280;17.806;2022-07-23T06:46:58;2.75;;;1.15;;
35667;SDS011;22158;59.280;17.806;2022-07-23T06:49:24;3.20;;;1.77;;
35667;SDS011;22158;59.280;17.806;2022-07-23T06:51:50;2.13;;;1.10;;
35667;SDS011;22158;59.280;17.806;2022-07-23T06:54:15;1.45;;;1.02;;
35667;SDS011;22158;59.280;17.806;2022-07-23T06:56:41;2.58;;;1.13;;
35667;SDS011;22158;59.280;17.806;2022-07-23T06:59:08;1.17;;;0.88;;
35667;SDS011;22158;59.280;17.806;2022-07-23T07:01:34;0.80;;;0.80;;
35667;SDS011;22158;59.280;17.806;2022-07-23T07:03:59;1.67;;;1.13;;
35667;SDS011;22158;59.280;17.806;2022-07-23T07:06:25;1.45;;;1.00;;
35667;SDS011;22158;59.280;17.806;2022-07-23T07:08:50;1.00;;;0.90;;
35667;SDS011;22158;59.280;17.806;2022-07-23T07:11:16;1.30;;;1.05;;
35667;SDS011;22158;59.280;17.806;2022-07-23T07:13:42;6.03;;;1.75;;
35667;SDS011;22158;59.280;17.806;2022-07-23T07:16:08;1.05;;;0.90;;
35667;SDS011;22158;59.280;17.806;2022-07-23T07:18:34;1.23;;;0.80;;
35667;SDS011;22158;59.280;17.806;2022-07-23T07:20:59;1.20;;;0.88;;
35667;SDS011;22158;59.280;17.806;2022-07-23T07:23:25;1.38;;;0.93;;
35667;SDS011;22158;59.280;17.806;2022-07-23T07:25:51;1.00;;;0.90;;
35667;SDS011;22158;59.280;17.806;2022-07-23T07:28:16;1.08;;;0.80;;
35667;SDS011;22158;59.280;17.806;2022-07-23T07:30:42;2.90;;;1.10;;
35667;SDS011;22158;59.280;17.806;2022-07-23T07:33:08;1.58;;;1.25;;
35667;SDS011;22158;59.280;17.806;2022-07-23T07:35:33;2.03;;;1.10;;
35667;SDS011;22158;59.280;17.806;2022-07-23T07:38:00;1.33;;;0.95;;
35667;SDS011;22158;59.280;17.806;2022-07-23T07:40:26;2.25;;;1.05;;
35667;SDS011;22158;59.280;17.806;2022-07-23T07:42:52;1.92;;;0.77;;
35667;SDS011;22158;59.280;17.806;2022-07-23T07:45:20;1.10;;;0.98;;
35667;SDS011;22158;59.280;17.806;2022-07-23T07:47:46;3.28;;;1.10;;
35667;SDS011;22158;59.280;17.806;2022-07-23T07:50:12;1.35;;;1.23;;
35667;SDS011;22158;59.280;17.806;2022-07-23T07:52:38;2.38;;;1.58;;
35667;SDS011;22158;59.280;17.806;2022-07-23T07:55:04;2.40;;;0.90;;
35667;SDS011;22158;59.280;17.806;2022-07-23T07:57:31;1.63;;;0.80;;
35667;SDS011;22158;59.280;17.806;2022-07-23T07:59:57;1.33;;;1.17;;
35667;SDS011;22158;59.280;17.806;2022-07-23T08:02:23;1.95;;;0.95;;
35667;SDS011;22158;59.280;17.806;2022-07-23T08:04:49;1.45;;;0.77;;
35667;SDS011;22158;59.280;17.806;2022-07-23T08:07:15;1.13;;;0.90;;
35667;SDS011;22158;59.280;17.806;2022-07-23T08:09:40;3.70;;;1.25;;
35667;SDS011;22158;59.280;17.806;2022-07-23T08:12:06;1.77;;;0.90;;
35667;SDS011;22158;59.280;17.806;2022-07-23T08:14:32;1.75;;;0.75;;
35667;SDS011;22158;59.280;17.806;2022-07-23T08:16:58;2.15;;;0.70;;
35667;SDS011;22158;59.280;17.806;2022-07-23T08:19:24;9.48;;;2.80;;
35667;SDS011;22158;59.280;17.806;2022-07-23T08:21:49;1.08;;;0.70;;
35667;SDS011;22158;59.280;17.806;2022-07-23T08:24:15;1.10;;;0.80;;
35667;SDS011;22158;59.280;17.806;2022-07-23T08:26:41;0.63;;;0.60;;
35667;SDS011;22158;59.280;17.806;2022-07-23T08:29:06;1.02;;;0.80;;
35667;SDS011;22158;59.280;17.806;2022-07-23T08:31:32;1.20;;;0.70;;
35667;SDS011;22158;59.280;17.806;2022-07-23T08:34:01;1.48;;;0.90;;
35667;SDS011;22158;59.280;17.806;2022-07-23T08:36:27;1.25;;;0.82;;
35667;SDS011;22158;59.280;17.806;2022-07-23T08:38:57;0.90;;;0.70;;
35667;SDS011;22158;59.280;17.806;2022-07-23T08:41:24;2.25;;;0.85;;
35667;SDS011;22158;59.280;17.806;2022-07-23T08:43:50;0.75;;;0.57;;
35667;SDS011;22158;59.280;17.806;2022-07-23T08:46:16;1.08;;;0.68;;
35667;SDS011;22158;59.280;17.806;2022-07-23T08:48:44;0.80;;;0.68;;
35667;SDS011;22158;59.280;17.806;2022-07-23T08:51:13;0.70;;;0.70;;
35667;SDS011;22158;59.280;17.806;2022-07-23T08:53:39;0.73;;;0.70;;
35667;SDS011;22158;59.280;17.806;2022-07-23T08:56:06;1.88;;;0.85;;
35667;SDS011;22158;59.280;17.806;2022-07-23T08:58:33;2.15;;;0.60;;
35667;SDS011;22158;59.280;17.806;2022-07-23T09:00:59;2.67;;;0.82;;
35667;SDS011;22158;59.280;17.806;2022-07-23T09:05:55;0.93;;;0.63;;
35667;SDS011;22158;59.280;17.806;2022-07-23T09:08:23;0.90;;;0.60;;
35667;SDS011;22158;59.280;17.806;2022-07-23T09:10:54;1.23;;;0.80;;
35667;SDS011;22158;59.280;17.806;2022-07-23T09:16:13;0.60;;;0.50;;
35667;SDS011;22158;59.280;17.806;2022-07-23T09:21:16;0.80;;;0.60;;
35667;SDS011;22158;59.280;17.806;2022-07-23T09:23:47;1.02;;;0.50;;
35667;SDS011;22158;59.280;17.806;2022-07-23T09:36:44;1.15;;;0.70;;
35667;SDS011;22158;59.280;17.806;2022-07-23T09:39:11;1.67;;;0.70;;
35667;SDS011;22158;59.280;17.806;2022-07-23T09:41:42;0.80;;;0.63;;
35667;SDS011;22158;59.280;17.806;2022-07-23T09:46:36;1.33;;;0.80;;
35667;SDS011;22158;59.280;17.806;2022-07-23T09:49:22;0.88;;;0.60;;
35667;SDS011;22158;59.280;17.806;2022-07-23T09:51:51;0.57;;;0.40;;
35667;SDS011;22158;59.280;17.806;2022-07-23T09:54:34;2.35;;;0.75;;
35667;SDS011;22158;59.280;17.806;2022-07-23T09:59:42;0.47;;;0.47;;
35667;SDS011;22158;59.280;17.806;2022-07-23T10:02:10;1.55;;;0.70;;
35667;SDS011;22158;59.280;17.806;2022-07-23T10:04:37;0.82;;;0.40;;
35667;SDS011;22158;59.280;17.806;2022-07-23T10:07:04;0.52;;;0.52;;
35667;SDS011;22158;59.280;17.806;2022-07-23T10:09:33;0.73;;;0.63;;
35667;SDS011;22158;59.280;17.806;2022-07-23T10:12:02;0.65;;;0.60;;
35667;SDS011;22158;59.280;17.806;2022-07-23T10:14:48;0.85;;;0.50;;
35667;SDS011;22158;59.280;17.806;2022-07-23T10:17:14;1.08;;;0.60;;
35667;SDS011;22158;59.280;17.806;2022-07-23T10:19:40;0.68;;;0.63;;
35667;SDS011;22158;59.280;17.806;2022-07-23T10:22:07;1.67;;;0.90;;
35667;SDS011;22158;59.280;17.806;2022-07-23T10:35:18;1.27;;;0.77;;
35667;SDS011;22158;59.280;17.806;2022-07-23T10:38:20;0.45;;;0.45;;
35667;SDS011;22158;59.280;17.806;2022-07-23T10:40:57;0.70;;;0.70;;
35667;SDS011;22158;59.280;17.806;2022-07-23T10:43:24;1.15;;;0.85;;
35667;SDS011;22158;59.280;17.806;2022-07-23T10:45:51;1.80;;;0.80;;
35667;SDS011;22158;59.280;17.806;2022-07-23T10:48:18;2.53;;;0.98;;
35667;SDS011;22158;59.280;17.806;2022-07-23T10:56:17;1.50;;;0.90;;
35667;SDS011;22158;59.280;17.806;2022-07-23T10:59:04;4.00;;;0.93;;
35667;SDS011;22158;59.280;17.806;2022-07-23T11:04:00;1.40;;;1.13;;
35667;SDS011;22158;59.280;17.806;2022-07-23T11:17:29;1.15;;;0.88;;
35667;SDS011;22158;59.280;17.806;2022-07-23T11:27:47;1.48;;;0.98;;
35667;SDS011;22158;59.280;17.806;2022-07-23T11:35:33;1.30;;;1.00;;
35667;SDS011;22158;59.280;17.806;2022-07-23T11:38:08;1.20;;;0.93;;
35667;SDS011;22158;59.280;17.806;2022-07-23T11:40:40;2.63;;;0.90;;
35667;SDS011;22158;59.280;17.806;2022-07-23T11:43:09;2.40;;;1.17;;
35667;SDS011;22158;59.280;17.806;2022-07-23T11:45:43;1.27;;;1.00;;
35667;SDS011;22158;59.280;17.806;2022-07-23T11:48:28;1.75;;;1.10;;
35667;SDS011;22158;59.280;17.806;2022-07-23T11:50:55;1.38;;;1.25;;
35667;SDS011;22158;59.280;17.806;2022-07-23T11:53:26;1.65;;;1.10;;
35667;SDS011;22158;59.280;17.806;2022-07-23T11:58:20;1.80;;;1.25;;
35667;SDS011;22158;59.280;17.806;2022-07-23T12:00:46;5.00;;;1.85;;
35667;SDS011;22158;59.280;17.806;2022-07-23T12:03:12;1.17;;;1.05;;
35667;SDS011;22158;59.280;17.806;2022-07-23T12:05:38;1.60;;;1.02;;
35667;SDS011;22158;59.280;17.806;2022-07-23T12:08:08;1.70;;;1.10;;
35667;SDS011;22158;59.280;17.806;2022-07-23T12:10:42;2.15;;;1.08;;
35667;SDS011;22158;59.280;17.806;2022-07-23T12:13:13;1.27;;;1.08;;
35667;SDS011;22158;59.280;17.806;2022-07-23T12:15:47;1.83;;;1.08;;
35667;SDS011;22158;59.280;17.806;2022-07-23T12:18:16;1.88;;;1.02;;
35667;SDS011;22158;59.280;17.806;2022-07-23T12:20:53;1.67;;;1.15;;
35667;SDS011;22158;59.280;17.806;2022-07-23T12:23:26;3.00;;;1.20;;
35667;SDS011;22158;59.280;17.806;2022-07-23T12:25:52;2.33;;;1.60;;
35667;SDS011;22158;59.280;17.806;2022-07-23T12:28:19;2.78;;;1.20;;
35667;SDS011;22158;59.280;17.806;2022-07-23T12:30:56;2.13;;;1.30;;
35667;SDS011;22158;59.280;17.806;2022-07-23T12:35:54;4.20;;;1.48;;
35667;SDS011;22158;59.280;17.806;2022-07-23T12:38:22;3.75;;;1.05;;
35667;SDS011;22158;59.280;17.806;2022-07-23T12:40:50;1.48;;;1.20;;
35667;SDS011;22158;59.280;17.806;2022-07-23T12:48:17;1.95;;;1.30;;
35667;SDS011;22158;59.280;17.806;2022-07-23T12:50:59;3.63;;;1.98;;
35667;SDS011;22158;59.280;17.806;2022-07-23T12:53:28;1.85;;;1.20;;
35667;SDS011;22158;59.280;17.806;2022-07-23T12:56:05;3.90;;;1.08;;
35667;SDS011;22158;59.280;17.806;2022-07-23T12:58:39;4.85;;;1.40;;
35667;SDS011;22158;59.280;17.806;2022-07-23T13:01:08;2.20;;;1.20;;
35667;SDS011;22158;59.280;17.806;2022-07-23T13:03:37;2.15;;;1.30;;
35667;SDS011;22158;59.280;17.806;2022-07-23T13:06:09;3.53;;;1.63;;
35667;SDS011;22158;59.280;17.806;2022-07-23T13:08:37;3.92;;;1.30;;
35667;SDS011;22158;59.280;17.806;2022-07-23T13:11:05;3.03;;;1.25;;
35667;SDS011;22158;59.280;17.806;2022-07-23T13:13:32;2.03;;;1.15;;
35667;SDS011;22158;59.280;17.806;2022-07-23T13:16:00;3.05;;;1.30;;
35667;SDS011;22158;59.280;17.806;2022-07-23T13:18:27;3.15;;;1.15;;
35667;SDS011;22158;59.280;17.806;2022-07-23T13:20:53;3.17;;;1.10;;
35667;SDS011;22158;59.280;17.806;2022-07-23T13:23:19;2.03;;;1.23;;
35667;SDS011;22158;59.280;17.806;2022-07-23T13:25:46;2.50;;;1.00;;
35667;SDS011;22158;59.280;17.806;2022-07-23T13:28:12;1.63;;;1.40;;
35667;SDS011;22158;59.280;17.806;2022-07-23T13:30:39;1.90;;;0.98;;
35667;SDS011;22158;59.280;17.806;2022-07-23T13:33:06;3.25;;;1.10;;
35667;SDS011;22158;59.280;17.806;2022-07-23T13:35:33;4.43;;;1.20;;
35667;SDS011;22158;59.280;17.806;2022-07-23T13:38:01;1.38;;;1.20;;
35667;SDS011;22158;59.280;17.806;2022-07-23T13:40:27;2.28;;;1.40;;
35667;SDS011;22158;59.280;17.806;2022-07-23T13:42:53;3.42;;;1.10;;
35667;SDS011;22158;59.280;17.806;2022-07-23T13:45:19;4.55;;;0.90;;
35667;SDS011;22158;59.280;17.806;2022-07-23T13:47:45;1.50;;;1.00;;
35667;SDS011;22158;59.280;17.806;2022-07-23T13:50:10;1.77;;;1.10;;
35667;SDS011;22158;59.280;17.806;2022-07-23T13:52:36;1.52;;;1.00;;
35667;SDS011;22158;59.280;17.806;2022-07-23T13:55:05;1.88;;;1.10;;
35667;SDS011;22158;59.280;17.806;2022-07-23T13:57:32;2.45;;;1.17;;
35667;SDS011;22158;59.280;17.806;2022-07-23T13:59:57;2.70;;;2.13;;
35667;SDS011;22158;59.280;17.806;2022-07-23T14:02:23;2.03;;;1.27;;
35667;SDS011;22158;59.280;17.806;2022-07-23T14:04:49;3.45;;;1.30;;
35667;SDS011;22158;59.280;17.806;2022-07-23T14:07:16;4.80;;;1.20;;
35667;SDS011;22158;59.280;17.806;2022-07-23T14:09:42;3.85;;;1.15;;
35667;SDS011;22158;59.280;17.806;2022-07-23T14:12:08;5.25;;;1.90;;
35667;SDS011;22158;59.280;17.806;2022-07-23T14:14:34;2.40;;;1.00;;
35667;SDS011;22158;59.280;17.806;2022-07-23T14:17:00;1.45;;;1.02;;
35667;SDS011;22158;59.280;17.806;2022-07-23T14:19:26;1.73;;;1.20;;
35667;SDS011;22158;59.280;17.806;2022-07-23T14:21:52;2.17;;;1.20;;
35667;SDS011;22158;59.280;17.806;2022-07-23T14:24:18;1.90;;;1.17;;
35667;SDS011;22158;59.280;17.806;2022-07-23T14:26:44;2.65;;;1.38;;
35667;SDS011;22158;59.280;17.806;2022-07-23T14:29:09;1.90;;;1.10;;
35667;SDS011;22158;59.280;17.806;2022-07-23T14:31:35;2.10;;;1.10;;
35667;SDS011;22158;59.280;17.806;2022-07-23T14:34:01;2.28;;;1.30;;
35667;SDS011;22158;59.280;17.806;2022-07-23T14:36:27;4.47;;;1.15;;
35667;SDS011;22158;59.280;17.806;2022-07-23T14:38:53;2.30;;;1.30;;
35667;SDS011;22158;59.280;17.806;2022-07-23T14:41:18;2.88;;;1.30;;
35667;SDS011;22158;59.280;17.806;2022-07-23T14:43:44;2.38;;;1.02;;
35667;SDS011;22158;59.280;17.806;2022-07-23T14:46:10;1.63;;;1.25;;
35667;SDS011;22158;59.280;17.806;2022-07-23T14:48:37;1.50;;;1.20;;
35667;SDS011;22158;59.280;17.806;2022-07-23T14:51:03;2.97;;;1.10;;
35667;SDS011;22158;59.280;17.806;2022-07-23T14:53:29;1.92;;;1.13;;
35667;SDS011;22158;59.280;17.806;2022-07-23T14:55:55;2.00;;;1.23;;
35667;SDS011;22158;59.280;17.806;2022-07-23T14:58:22;3.90;;;1.42;;
35667;SDS011;22158;59.280;17.806;2022-07-23T15:00:48;2.40;;;0.95;;
35667;SDS011;22158;59.280;17.806;2022-07-23T15:03:15;2.78;;;1.27;;
35667;SDS011;22158;59.280;17.806;2022-07-23T15:05:41;1.80;;;1.23;;
35667;SDS011;22158;59.280;17.806;2022-07-23T15:08:06;1.27;;;1.10;;
35667;SDS011;22158;59.280;17.806;2022-07-23T15:10:32;3.20;;;1.48;;
35667;SDS011;22158;59.280;17.806;2022-07-23T15:12:58;2.33;;;1.23;;
35667;SDS011;22158;59.280;17.806;2022-07-23T15:15:23;1.73;;;1.33;;
35667;SDS011;22158;59.280;17.806;2022-07-23T15:17:49;3.72;;;1.80;;
35667;SDS011;22158;59.280;17.806;2022-07-23T15:20:15;2.83;;;1.50;;
35667;SDS011;22158;59.280;17.806;2022-07-23T15:22:41;2.13;;;1.80;;
35667;SDS011;22158;59.280;17.806;2022-07-23T15:25:07;3.63;;;1.92;;
35667;SDS011;22158;59.280;17.806;2022-07-23T15:27:33;3.75;;;1.50;;
35667;SDS011;22158;59.280;17.806;2022-07-23T15:29:58;5.40;;;1.50;;
35667;SDS011;22158;59.280;17.806;2022-07-23T15:32:24;3.10;;;1.92;;
35667;SDS011;22158;59.280;17.806;2022-07-23T15:34:51;3.25;;;1.83;;
35667;SDS011;22158;59.280;17.806;2022-07-23T15:37:18;3.53;;;1.75;;
35667;SDS011;22158;59.280;17.806;2022-07-23T15:39:43;2.78;;;1.50;;
35667;SDS011;22158;59.280;17.806;2022-07-23T15:42:09;3.92;;;1.52;;
35667;SDS011;22158;59.280;17.806;2022-07-23T15:44:35;4.32;;;1.85;;
35667;SDS011;22158;59.280;17.806;2022-07-23T15:47:01;3.10;;;1.40;;